Flight Track Log - Related Links

Times and Time Zones

All times are in EDT time to prevent confusion due to time zone crossing. See the UAL978 flight status page for this flight to view local times or setup timezone preferences in your user account.

Time Position Orientation Groundspeed Altitude Reporting Facility
EDT Latitude Longitude Course Direction KTS MPH feet Rate Location/Type
Tue 08:08:02 PM -23.4250 -46.4870 207° Southwest 2 2  Level FlightAware ADS-B
Tue 08:08:38 PM -23.4250 -46.4860 90° East 1 1 149 Level FlightAware ADS-B
Tue 08:11:00 PM -23.2612 -46.7233 301° West  Level FlightAware Approximate
Tue 08:11:02 PM -23.4260 -46.4860 301° West 1 1  Level FlightAware ADS-B
Tue 08:11:47 PM -23.4260 -46.4850 90° East 1 1 173 Level FlightAware ADS-B
Tue 08:14:00 PM -23.2658 -46.7150 301° West  Level FlightAware Approximate
Tue 08:14:28 PM -23.4260 -46.4840 301° West 3 3  Level FlightAware ADS-B
Tue 08:14:59 PM -23.4260 -46.4830 90° East 3 3 210 Level FlightAware ADS-B
Tue 08:17:00 PM -23.2789 -46.6913 301° West  Level FlightAware Approximate
Tue 08:18:00 PM -23.2171 -46.8026 301° West  Level FlightAware Approximate
Tue 08:18:04 PM -23.4270 -46.4810 301° West 3 3  Level FlightAware ADS-B
Tue 08:18:54 PM -23.4280 -46.4800 137° Southeast 6 7 273 Level FlightAware ADS-B
Tue 08:19:24 PM -23.4290 -46.4800 180° South 6 7 293 Level FlightAware ADS-B
Tue 08:20:19 PM -23.4290 -46.4780 90° East 5 6 307 Level FlightAware ADS-B
Tue 08:21:29 PM -23.4290 -46.4760 90° East 5 6 336 Level FlightAware ADS-B
Tue 08:22:09 PM -23.4290 -46.4750 90° East 5 6 381 Level FlightAware ADS-B
Tue 08:22:54 PM -23.4290 -46.4740 90° East 6 7 413 Level FlightAware ADS-B
Tue 08:23:19 PM -23.4290 -46.4730 90° East 6 7 455 Level FlightAware ADS-B
Tue 08:23:40 PM -23.4280 -46.4730 360° North 6 7 483 Level FlightAware ADS-B
Tue 08:23:54 PM -23.4280 -46.4720 90° East 6 7 509 Level FlightAware ADS-B
Tue 08:24:24 PM -23.4280 -46.4710 90° East 6 7 528 Level FlightAware ADS-B
Tue 08:25:09 PM -23.4280 -46.4700 90° East 8 9 574 Level FlightAware ADS-B
Tue 08:25:44 PM -23.4290 -46.4690 137° Southeast 8 9 660 Level FlightAware ADS-B
Tue 08:26:24 PM -23.4280 -46.4670 61° Northeast 7 8 747 Level FlightAware ADS-B
Tue 08:26:54 PM -23.4280 -46.4660 90° East 7 8 880 Level FlightAware ADS-B
Tue 08:27:17 PM -23.4280 -46.4650 90° East 9 10 1,015 Level FlightAware ADS-B
Tue 08:27:44 PM -23.4290 -46.4640 137° Southeast 17 20 1,151 Level FlightAware ADS-B
Tue 08:29:16 PM -23.4270 -46.4580 70° East 61 70 1,366 Level FlightAware ADS-B
Tue 08:29:44 PM -23.4220 -46.4410 72° East 3,736 Level FlightAware ADS-B
Tue 08:30:09 PM -23.4160 -46.4210 72° East 158 182 3,300 5,200 Climbing FlightAware ADS-B
Tue 08:30:29 PM -23.4120 -46.4040 76° East 165 190 3,900 1,560 Climbing FlightAware ADS-B
Tue 08:30:59 PM -23.4230 -46.3820 119° Southeast 197 227 4,600 2,000 Climbing FlightAware ADS-B
Tue 08:31:29 PM -23.4460 -46.3960 209° Southwest 207 238 5,900 2,850 Climbing FlightAware ADS-B
Tue 08:31:39 PM -23.4510 -46.4050 239° Southwest 196 226 6,500 2,400 Climbing FlightAware ADS-B
Tue 08:32:09 PM -23.4710 -46.4270 225° Southwest 207 238 7,500 1,560 Climbing FlightAware ADS-B
Tue 08:32:29 PM -23.4840 -46.4430 228° Southwest 234 269 7,800 1,333 Climbing FlightAware ADS-B
Tue 08:32:54 PM -23.5010 -46.4680 233° Southwest 249 287 8,500 1,610 Climbing FlightAware ADS-B
Tue 08:33:10 PM -23.5130 -46.4840 231° Southwest 267 307 8,900 2,100 Climbing FlightAware ADS-B
Tue 08:33:54 PM -23.5490 -46.5340 232° Southwest 294 338 10,600 1,909 Climbing FlightAware ADS-B
Tue 08:34:38 PM -23.5910 -46.5920 232° Southwest 339 390 11,700 1,667 Climbing FlightAware ADS-B
Tue 08:35:06 PM -23.6090 -46.6350 245° Southwest 363 418 12,600 1,429 Climbing FlightAware ADS-B
Tue 08:35:20 PM -23.6080 -46.6610 272° West 383 441 12,700 2,333 Climbing FlightAware ADS-B
Tue 08:36:00 PM -23.5920 -46.7390 283° West 386 444 14,700 2,313 Climbing FlightAware ADS-B
Tue 08:36:43 PM -23.5780 -46.8220 280° West 411 473 15,900 2,329 Climbing FlightAware ADS-B
Tue 08:37:25 PM -23.5630 -46.9080 281° West 407 468 18,000 2,143 Climbing FlightAware ADS-B
Tue 08:38:07 PM -23.5470 -46.9960 281° West 431 496 18,900 1,674 Climbing FlightAware ADS-B
Tue 08:38:51 PM -23.5310 -47.0890 281° West 438 504 20,400 1,857 Climbing FlightAware ADS-B
Tue 08:39:31 PM -23.5160 -47.1740 281° West 449 517 21,500 2,025 Climbing FlightAware ADS-B
Tue 08:40:11 PM -23.5010 -47.2660 280° West 448 516 23,100 2,096 Climbing FlightAware ADS-B
Tue 08:40:54 PM -23.4730 -47.3580 288° West 458 527 24,400 1,650 Climbing FlightAware ADS-B
Tue 08:41:31 PM -23.4230 -47.4260 309° West 470 541 25,300 1,325 Climbing FlightAware ADS-B
Tue 08:42:11 PM -23.3670 -47.4990 310° West 478 550 26,100 1,694 Climbing FlightAware ADS-B
Tue 08:42:56 PM -23.3040 -47.5820 310° West 473 544 27,700 1,714 Climbing FlightAware ADS-B
Tue 08:43:35 PM -23.2490 -47.6540 310° West 478 550 28,500 1,446 Climbing FlightAware ADS-B
Tue 08:44:19 PM -23.1880 -47.7360 309° West 477 549 29,700 1,624 Climbing FlightAware ADS-B
Tue 08:45:00 PM -23.1290 -47.8120 310° West 476 548 30,800 1,571 Climbing FlightAware ADS-B
Tue 08:45:43 PM -23.0690 -47.8910 310° West 473 544 31,900 867 Climbing FlightAware ADS-B
Tue 08:46:23 PM -23.0140 -47.9640 309° West 472 543 32,000 79 Climbing FlightAware ADS-B
Tue 08:46:59 PM -22.9640 -48.0300 309° West 468 539 32,000  Level FlightAware ADS-B
Tue 08:47:43 PM -22.9030 -48.1100 310° West 466 536 32,000  Level FlightAware ADS-B
Tue 08:48:17 PM -22.8570 -48.1700 310° West 466 536 32,000  Level FlightAware ADS-B
Tue 08:48:59 PM -22.7990 -48.2470 309° West 466 536 32,000  Level FlightAware ADS-B
Tue 08:49:42 PM -22.7410 -48.3240 309° West 466 536 32,000  Level FlightAware ADS-B
Tue 08:50:18 PM -22.6910 -48.3910 309° West 467 537 32,000  Level FlightAware ADS-B
Tue 08:51:06 PM -22.6260 -48.4780 309° West 467 537 32,000  Level FlightAware ADS-B
Tue 08:51:47 PM -22.5710 -48.5520 309° West 468 539 32,000  Level FlightAware ADS-B
Tue 08:52:27 PM -22.5150 -48.6250 310° West 469 540 32,000  Level FlightAware ADS-B
Tue 08:53:13 PM -22.4530 -48.7080 309° West 470 541 32,000  Level FlightAware ADS-B
Tue 08:53:45 PM -22.4090 -48.7680 308° West 470 541 32,000  Level FlightAware ADS-B
Tue 08:54:28 PM -22.3510 -48.8440 310° West 471 542 32,000  Level FlightAware ADS-B
Tue 08:55:09 PM -22.2930 -48.9210 309° West 472 543 32,000  Level FlightAware ADS-B
Tue 08:55:44 PM -22.2460 -48.9830 309° West 472 543 32,000  Level FlightAware ADS-B
Tue 08:56:25 PM -22.1880 -49.0600 309° West 472 543 32,000  Level FlightAware ADS-B
Tue 08:57:09 PM -22.1270 -49.1400 309° West 472 543 32,000  Level FlightAware ADS-B
Tue 08:57:47 PM -22.0750 -49.2090 309° West 473 544 32,000  Level FlightAware ADS-B
Tue 08:58:33 PM -22.0100 -49.2960 309° West 474 545 32,000  Level FlightAware ADS-B
Tue 08:59:13 PM -21.9560 -49.3670 309° West 474 545 32,000  Level FlightAware ADS-B
Tue 08:59:57 PM -21.8950 -49.4480 309° West 475 547 32,000  Level FlightAware ADS-B
Tue 09:00:30 PM -21.8500 -49.5080 309° West 475 547 32,000  Level FlightAware ADS-B
Tue 09:01:15 PM -21.7870 -49.5910 309° West 476 548 32,000  Level FlightAware ADS-B
Tue 09:01:53 PM -21.7340 -49.6600 310° West 475 547 32,000  Level FlightAware ADS-B
Tue 09:02:30 PM -21.6830 -49.7290 308° West 475 547 32,000  Level FlightAware ADS-B
Tue 09:03:14 PM -21.6220 -49.8100 309° West 474 545 32,000  Level FlightAware ADS-B
Tue 09:03:54 PM -21.5700 -49.8810 308° West 474 545 32,000  Level FlightAware ADS-B
Tue 09:04:38 PM -21.5100 -49.9610 309° West 474 545 32,000  Level FlightAware ADS-B
Tue 09:05:19 PM -21.4500 -50.0380 310° West 474 545 32,000  Level FlightAware ADS-B
Tue 09:05:59 PM -21.3900 -50.1090 312° West 474 545 32,000  Level FlightAware ADS-B
Tue 09:06:43 PM -21.3260 -50.1840 312° West 474 545 32,000  Level FlightAware ADS-B
Tue 09:07:32 PM -21.2510 -50.2680 314° West 474 545 32,000  Level FlightAware ADS-B
Tue 09:08:12 PM -21.2010 -50.3280 312° West 474 545 32,000  Level FlightAware ADS-B
Tue 09:08:54 PM -21.1320 -50.4080 313° West 473 544 32,000  Level FlightAware ADS-B
Tue 09:09:28 PM -21.0800 -50.4700 312° West 473 544 32,000  Level FlightAware ADS-B
Tue 09:10:10 PM -21.0160 -50.5440 313° West 472 543 32,000  Level FlightAware ADS-B
Tue 09:10:52 PM -20.9570 -50.6140 312° West 471 542 32,000  Level FlightAware ADS-B
Tue 09:11:37 PM -20.8890 -50.6910 313° West 470 541 32,000  Level FlightAware ADS-B
Tue 09:12:25 PM -20.8240 -50.7650 313° West 470 541 32,000  Level FlightAware ADS-B
Tue 09:13:04 PM -20.7750 -50.8220 313° West 470 541 32,000  Level FlightAware ADS-B
Tue 09:13:50 PM -20.7170 -50.8880 313° West 470 541 32,000  Level FlightAware ADS-B
Tue 09:14:33 PM -20.6230 -50.9870 315° West 470 541 32,000  Level FlightAware ADS-B
Tue 09:15:31 PM -20.5480 -51.0700 314° West 470 541 32,000  Level FlightAware ADS-B
Tue 09:16:07 PM -20.5020 -51.1210 314° West 470 541 32,000  Level FlightAware ADS-B
Tue 09:16:43 PM -20.4550 -51.1720 315° West 470 541 32,000  Level FlightAware ADS-B
Tue 09:17:43 PM -20.3780 -51.2570 314° West 470 541 32,000  Level FlightAware ADS-B
Tue 09:18:19 PM -20.3320 -51.3080 314° West 470 541 32,000  Level FlightAware ADS-B
Tue 09:19:08 PM -20.2690 -51.3780 314° West 470 541 32,000  Level FlightAware ADS-B
Tue 09:19:44 PM -20.2230 -51.4290 314° West 470 541 32,000  Level FlightAware ADS-B
Tue 09:20:40 PM -20.0680 -51.5980 314° West 469 540 32,000  Level FlightAware ADS-B
Tue 09:21:48 PM -19.9790 -51.6990 313° West 469 540 32,000  Level FlightAware ADS-B
Tue 09:22:26 PM -19.9100 -51.7750 314° West 467 537 32,000  Level FlightAware ADS-B
Tue 09:23:06 PM -19.8500 -51.8410 314° West 468 539 32,000  Level FlightAware ADS-B
Tue 09:23:44 PM -19.7930 -51.9040 314° West 468 539 32,000  Level FlightAware ADS-B
Tue 09:24:24 PM -19.7310 -51.9720 314° West 468 539 32,000  Level FlightAware ADS-B
Tue 09:25:08 PM -19.6660 -52.0430 314° West 468 539 32,000  Level FlightAware ADS-B
Tue 09:25:50 PM -19.6010 -52.1130 315° West 468 539 32,000  Level FlightAware ADS-B
Tue 09:26:32 PM -19.5380 -52.1800 315° West 468 539 32,000  Level FlightAware ADS-B
Tue 09:27:14 PM -19.4720 -52.2490 315° West 467 537 32,000  Level FlightAware ADS-B
Tue 09:27:56 PM -19.4080 -52.3170 315° West 467 537 32,000  Level FlightAware ADS-B
Tue 09:28:38 PM -19.3440 -52.3850 315° West 467 537 32,000  Level FlightAware ADS-B
Tue 09:29:20 PM -19.2790 -52.4530 315° West 467 537 32,000  Level FlightAware ADS-B
Tue 09:30:04 PM -19.2120 -52.5230 315° West 467 537 32,000  Level FlightAware ADS-B
Tue 09:30:44 PM -19.1500 -52.5890 315° West 468 539 32,000  Level FlightAware ADS-B
Tue 09:31:28 PM -19.0840 -52.6580 315° West 467 537 32,000  Level FlightAware ADS-B
Tue 09:32:08 PM -19.0220 -52.7230 315° West 466 536 32,000  Level FlightAware ADS-B
Tue 09:32:53 PM -18.9530 -52.7950 315° West 466 536 32,000  Level FlightAware ADS-B
Tue 09:33:32 PM -18.8920 -52.8580 316° Northwest 465 535 32,000  Level FlightAware ADS-B
Tue 09:34:16 PM -18.8250 -52.9280 315° West 465 535 32,000  Level FlightAware ADS-B
Tue 09:34:56 PM -18.7640 -52.9910 316° Northwest 465 535 32,000  Level FlightAware ADS-B
Tue 09:35:40 PM -18.6960 -53.0610 316° Northwest 465 535 32,000  Level FlightAware ADS-B
Tue 09:36:20 PM -18.6340 -53.1250 316° Northwest 465 535 32,000  Level FlightAware ADS-B
Tue 09:37:04 PM -18.5660 -53.1940 316° Northwest 466 536 32,000  Level FlightAware ADS-B
Tue 09:37:44 PM -18.5030 -53.2580 316° Northwest 466 536 32,000  Level FlightAware ADS-B
Tue 09:38:30 PM -18.4330 -53.3300 316° Northwest 466 536 32,000  Level FlightAware ADS-B
Tue 09:39:06 PM -18.3770 -53.3860 316° Northwest 466 536 32,000  Level FlightAware ADS-B
Tue 09:39:44 PM -18.3160 -53.4470 316° Northwest 466 536 32,000  Level FlightAware ADS-B
Tue 09:40:28 PM -18.2480 -53.5160 316° Northwest 467 537 32,000  Level FlightAware ADS-B
Tue 09:41:08 PM -18.1850 -53.5790 316° Northwest 467 537 32,000  Level FlightAware ADS-B
Tue 09:41:52 PM -18.1160 -53.6490 316° Northwest 467 537 32,000  Level FlightAware ADS-B
Tue 09:42:33 PM -18.0530 -53.7120 316° Northwest 467 537 32,000  Level FlightAware ADS-B
Tue 09:43:18 PM -17.9820 -53.7840 316° Northwest 467 537 32,000  Level FlightAware ADS-B
Tue 09:43:54 PM -17.9260 -53.8400 316° Northwest 467 537 32,000  Level FlightAware ADS-B
Tue 09:44:40 PM -17.8520 -53.9120 317° Northwest 467 537 32,000  Level FlightAware ADS-B
Tue 09:45:17 PM -17.8050 -53.9600 316° Northwest 467 537 32,000  Level FlightAware ADS-B
Tue 09:46:18 PM -17.7060 -54.0570 317° Northwest 466 536 32,000  Level FlightAware ADS-B
Tue 09:46:52 PM -17.6610 -54.1020 316° Northwest 466 536 32,000  Level FlightAware ADS-B
Tue 09:47:40 PM -17.5980 -54.1660 316° Northwest 466 536 32,000  Level FlightAware ADS-B
Tue 09:48:29 PM -17.5340 -54.2320 315° West 466 536 32,000  Level FlightAware ADS-B
Tue 09:49:29 PM -17.4540 -54.3120 316° Northwest 466 536 32,000  Level FlightAware ADS-B
Tue 09:50:06 PM -17.4060 -54.3610 316° Northwest 466 536 32,000  Level FlightAware ADS-B
Tue 09:50:40 PM -17.3610 -54.4070 316° Northwest 466 536 32,000  Level FlightAware ADS-B
Tue 09:51:28 PM -17.2980 -54.4710 316° Northwest 466 536 32,000  Level FlightAware ADS-B
Tue 09:52:04 PM -17.2500 -54.5190 316° Northwest 466 536 32,000  Level FlightAware ADS-B
Tue 09:53:05 PM -17.1700 -54.6000 316° Northwest 466 536 32,000  Level FlightAware ADS-B
Tue 09:53:41 PM -17.1220 -54.6480 316° Northwest 466 536 32,000  Level FlightAware ADS-B
Tue 09:54:29 PM -17.0590 -54.7120 316° Northwest 466 536 32,000  Level FlightAware ADS-B
Tue 09:55:05 PM -17.0110 -54.7600 316° Northwest 466 536 32,000  Level FlightAware ADS-B
Tue 09:55:41 PM -16.9640 -54.8080 316° Northwest 466 536 32,000 18 Level FlightAware ADS-B
Tue 09:58:00 PM -16.7437 -55.0012 320° Northwest  Level Estimated
Tue 09:59:00 PM -16.6485 -55.0845 320° Northwest  Level Estimated
Tue 10:00:00 PM -16.5533 -55.1676 320° Northwest  Level Estimated
Tue 10:01:00 PM -16.4581 -55.2507 320° Northwest  Level Estimated
Tue 10:02:00 PM -16.3630 -55.3336 320° Northwest  Level Estimated
Tue 10:03:00 PM -16.2679 -55.4164 320° Northwest  Level Estimated
Tue 10:04:00 PM -16.1727 -55.4991 320° Northwest  Level Estimated
Tue 10:05:00 PM -16.0775 -55.5817 320° Northwest  Level Estimated
Tue 10:06:00 PM -15.9823 -55.6643 320° Northwest  Level Estimated
Tue 10:07:00 PM -15.8870 -55.7467 320° Northwest  Level Estimated
Tue 10:08:00 PM -15.7917 -55.8291 320° Northwest  Level Estimated
Tue 10:09:00 PM -15.6964 -55.9114 320° Northwest  Level Estimated
Tue 10:10:00 PM -15.6011 -55.9937 320° Northwest  Level Estimated
Tue 10:11:00 PM -15.5057 -56.0759 320° Northwest  Level Estimated
Tue 10:12:00 PM -15.4103 -56.1579 320° Northwest  Level Estimated
Tue 10:13:00 PM -15.3148 -56.2399 320° Northwest  Level Estimated
Tue 10:14:00 PM -15.2194 -56.3219 320° Northwest  Level Estimated
Tue 10:15:00 PM -15.1239 -56.4038 320° Northwest  Level Estimated
Tue 10:16:00 PM -15.0283 -56.4855 320° Northwest  Level Estimated
Tue 10:17:00 PM -14.9328 -56.5672 320° Northwest  Level Estimated
Tue 10:18:00 PM -14.8372 -56.6489 320° Northwest  Level Estimated
Tue 10:19:00 PM -14.7416 -56.7305 320° Northwest  Level Estimated
Tue 10:20:00 PM -14.6459 -56.8120 320° Northwest  Level Estimated
Tue 10:21:00 PM -14.5503 -56.8934 321° Northwest  Level Estimated
Tue 10:22:00 PM -14.4545 -56.9748 321° Northwest  Level Estimated
Tue 10:23:00 PM -14.3588 -57.0560 321° Northwest  Level Estimated
Tue 10:24:00 PM -14.2631 -57.1373 321° Northwest  Level Estimated
Tue 10:25:00 PM -14.1673 -57.2184 321° Northwest  Level Estimated
Tue 10:26:00 PM -14.0715 -57.2995 321° Northwest  Level Estimated
Tue 10:27:00 PM -13.9756 -57.3805 321° Northwest  Level Estimated
Tue 10:28:00 PM -13.8798 -57.4614 321° Northwest  Level Estimated
Tue 10:29:00 PM -13.7839 -57.5423 321° Northwest  Level Estimated
Tue 10:30:00 PM -13.6880 -57.6231 321° Northwest  Level Estimated
Tue 10:31:00 PM -13.5920 -57.7039 321° Northwest  Level Estimated
Tue 10:32:00 PM -13.4960 -57.7845 321° Northwest  Level Estimated
Tue 10:33:00 PM -13.4001 -57.8652 321° Northwest  Level Estimated
Tue 10:34:00 PM -13.3040 -57.9457 321° Northwest  Level Estimated
Tue 10:35:00 PM -13.2080 -58.0262 321° Northwest  Level Estimated
Tue 10:36:00 PM -13.1119 -58.1066 321° Northwest  Level Estimated
Tue 10:37:00 PM -13.0158 -58.1870 321° Northwest  Level Estimated
Tue 10:38:00 PM -12.9197 -58.2673 321° Northwest  Level Estimated
Tue 10:39:00 PM -12.8235 -58.3475 321° Northwest  Level Estimated
Tue 10:40:00 PM -12.7274 -58.4277 321° Northwest  Level Estimated
Tue 10:41:00 PM -12.6312 -58.5078 321° Northwest  Level Estimated
Tue 10:42:00 PM -12.5350 -58.5878 321° Northwest  Level Estimated
Tue 10:43:00 PM -12.4387 -58.6678 321° Northwest  Level Estimated
Tue 10:44:00 PM -12.3425 -58.7478 321° Northwest  Level Estimated
Tue 10:45:00 PM -12.2462 -58.8276 321° Northwest  Level Estimated
Tue 10:46:00 PM -12.1499 -58.9075 321° Northwest  Level Estimated
Tue 10:47:00 PM -12.0535 -58.9872 321° Northwest  Level Estimated
Tue 10:48:00 PM -11.9572 -59.0669 321° Northwest  Level Estimated
Tue 10:49:00 PM -11.8608 -59.1466 321° Northwest  Level Estimated
Tue 10:50:00 PM -11.7644 -59.2262 321° Northwest  Level Estimated
Tue 10:51:00 PM -11.6680 -59.3057 321° Northwest  Level Estimated
Tue 10:52:00 PM -11.5715 -59.3852 321° Northwest  Level Estimated
Tue 10:53:00 PM -11.4750 -59.4646 321° Northwest  Level Estimated
Tue 10:54:00 PM -11.3786 -59.5440 321° Northwest  Level Estimated
Tue 10:55:00 PM -11.2821 -59.6233 321° Northwest  Level Estimated
Tue 10:56:00 PM -11.1855 -59.7025 321° Northwest  Level Estimated
Tue 10:57:00 PM -11.0890 -59.7818 321° Northwest  Level Estimated
Tue 10:58:00 PM -10.9924 -59.8609 321° Northwest  Level Estimated
Tue 10:59:00 PM -10.8958 -59.9400 321° Northwest  Level Estimated
Tue 11:00:00 PM -10.7992 -60.0191 321° Northwest  Level Estimated
Tue 11:01:00 PM -10.7026 -60.0981 321° Northwest  Level Estimated
Tue 11:02:00 PM -10.6059 -60.1770 321° Northwest  Level Estimated
Tue 11:03:00 PM -10.5092 -60.2559 321° Northwest  Level Estimated
Tue 11:04:00 PM -10.4126 -60.3348 321° Northwest  Level Estimated
Tue 11:05:00 PM -10.3159 -60.4136 321° Northwest  Level Estimated
Tue 11:06:00 PM -10.2191 -60.4923 321° Northwest  Level Estimated
Tue 11:07:00 PM -10.1224 -60.5710 321° Northwest  Level Estimated
Tue 11:08:00 PM -10.0256 -60.6497 321° Northwest  Level Estimated
Tue 11:09:00 PM -9.9288 -60.7283 321° Northwest  Level Estimated
Tue 11:10:00 PM -9.8320 -60.8069 321° Northwest  Level Estimated
Tue 11:11:00 PM -9.7352 -60.8854 321° Northwest  Level Estimated
Tue 11:12:00 PM -9.6383 -60.9639 321° Northwest  Level Estimated
Tue 11:13:00 PM -9.5415 -61.0423 321° Northwest  Level Estimated
Tue 11:14:00 PM -9.4446 -61.1207 321° Northwest  Level Estimated
Tue 11:15:00 PM -9.3477 -61.1991 321° Northwest  Level Estimated
Tue 11:16:00 PM -9.2506 -61.2775 321° Northwest  Level Estimated
Tue 11:17:00 PM -9.1535 -61.3559 321° Northwest  Level Estimated
Tue 11:18:00 PM -9.0564 -61.4342 321° Northwest  Level Estimated
Tue 11:19:00 PM -8.9593 -61.5125 321° Northwest  Level Estimated
Tue 11:20:00 PM -8.8622 -61.5908 321° Northwest  Level Estimated
Tue 11:21:00 PM -8.7650 -61.6690 321° Northwest  Level Estimated
Tue 11:22:00 PM -8.6678 -61.7472 322° Northwest  Level Estimated
Tue 11:23:00 PM -8.5706 -61.8253 322° Northwest  Level Estimated
Tue 11:24:00 PM -8.4734 -61.9034 322° Northwest  Level Estimated
Tue 11:25:00 PM -8.3762 -61.9815 322° Northwest  Level Estimated
Tue 11:26:00 PM -8.2789 -62.0595 322° Northwest  Level Estimated
Tue 11:27:00 PM -8.1817 -62.1375 322° Northwest  Level Estimated
Tue 11:28:00 PM -8.0844 -62.2154 322° Northwest  Level Estimated
Tue 11:29:00 PM -7.9871 -62.2934 322° Northwest  Level Estimated
Tue 11:30:00 PM -7.8898 -62.3712 322° Northwest  Level Estimated
Tue 11:31:00 PM -7.7925 -62.4491 322° Northwest  Level Estimated
Tue 11:32:00 PM -7.6952 -62.5269 322° Northwest  Level Estimated
Tue 11:33:00 PM -7.5978 -62.6046 322° Northwest  Level Estimated
Tue 11:34:00 PM -7.5006 -62.6822 322° Northwest  Level Estimated
Tue 11:35:00 PM -7.4035 -62.7598 322° Northwest  Level Estimated
Tue 11:36:00 PM -7.3062 -62.8373 322° Northwest  Level Estimated
Tue 11:37:00 PM -7.2090 -62.9148 322° Northwest  Level Estimated
Tue 11:38:00 PM -7.1118 -62.9922 322° Northwest  Level Estimated
Tue 11:39:00 PM -7.0145 -63.0697 322° Northwest  Level Estimated
Tue 11:40:00 PM -6.9173 -63.1470 322° Northwest  Level Estimated
Tue 11:41:00 PM -6.8200 -63.2244 322° Northwest  Level Estimated
Tue 11:42:00 PM -6.7227 -63.3017 322° Northwest  Level Estimated
Tue 11:43:00 PM -6.6254 -63.3790 322° Northwest  Level Estimated
Tue 11:44:00 PM -6.5281 -63.4563 322° Northwest  Level Estimated
Tue 11:45:00 PM -6.4307 -63.5336 322° Northwest  Level Estimated
Tue 11:46:00 PM -6.3334 -63.6108 322° Northwest  Level Estimated
Tue 11:47:00 PM -6.2360 -63.6879 322° Northwest  Level Estimated
Tue 11:48:00 PM -6.1387 -63.7651 322° Northwest  Level Estimated
Tue 11:49:00 PM -6.0413 -63.8422 322° Northwest  Level Estimated
Tue 11:50:00 PM -5.9439 -63.9193 322° Northwest  Level Estimated
Tue 11:51:00 PM -5.8465 -63.9964 322° Northwest  Level Estimated
Tue 11:52:00 PM -5.7491 -64.0734 322° Northwest  Level Estimated
Tue 11:53:00 PM -5.6517 -64.1504 322° Northwest  Level Estimated
Tue 11:54:00 PM -5.5543 -64.2274 322° Northwest  Level Estimated
Tue 11:55:00 PM -5.4569 -64.3044 322° Northwest  Level Estimated
Tue 11:56:00 PM -5.3594 -64.3813 322° Northwest  Level Estimated
Tue 11:57:00 PM -5.2620 -64.4582 322° Northwest  Level Estimated
Tue 11:58:00 PM -5.1645 -64.5351 322° Northwest  Level Estimated
Tue 11:59:00 PM -5.0671 -64.6120 322° Northwest  Level Estimated
Wed 12:00:00 AM -4.9696 -64.6888 322° Northwest  Level Estimated
Wed 12:01:00 AM -4.8721 -64.7656 322° Northwest  Level Estimated
Wed 12:02:00 AM -4.7746 -64.8424 322° Northwest  Level Estimated
Wed 12:03:00 AM -4.6769 -64.9193 322° Northwest  Level Estimated
Wed 12:04:00 AM -4.5792 -64.9962 322° Northwest  Level Estimated
Wed 12:05:00 AM -4.4815 -65.0731 322° Northwest  Level Estimated
Wed 12:06:00 AM -4.3838 -65.1500 322° Northwest  Level Estimated
Wed 12:07:00 AM -4.2861 -65.2268 322° Northwest  Level Estimated
Wed 12:08:00 AM -4.1884 -65.3036 322° Northwest  Level Estimated
Wed 12:09:00 AM -4.0907 -65.3804 322° Northwest  Level Estimated
Wed 12:10:00 AM -3.9929 -65.4572 322° Northwest  Level Estimated
Wed 12:11:00 AM -3.8952 -65.5339 322° Northwest  Level Estimated
Wed 12:12:00 AM -3.7975 -65.6106 322° Northwest  Level Estimated
Wed 12:13:00 AM -3.6997 -65.6873 322° Northwest  Level Estimated
Wed 12:14:00 AM -3.6019 -65.7641 322° Northwest  Level Estimated
Wed 12:15:00 AM -3.5042 -65.8407 322° Northwest  Level Estimated
Wed 12:16:00 AM -3.4064 -65.9174 322° Northwest  Level Estimated
Wed 12:17:00 AM -3.3086 -65.9940 322° Northwest  Level Estimated
Wed 12:18:00 AM -3.2108 -66.0707 322° Northwest  Level Estimated
Wed 12:19:00 AM -3.1130 -66.1473 322° Northwest  Level Estimated
Wed 12:20:00 AM -3.0152 -66.2239 322° Northwest  Level Estimated
Wed 12:21:00 AM -2.9174 -66.3005 322° Northwest  Level Estimated
Wed 12:22:00 AM -2.8196 -66.3771 322° Northwest  Level Estimated
Wed 12:23:00 AM -2.7218 -66.4536 322° Northwest  Level Estimated
Wed 12:24:00 AM -2.6240 -66.5302 322° Northwest  Level Estimated
Wed 12:25:00 AM -2.5262 -66.6067 322° Northwest  Level Estimated
Wed 12:26:00 AM -2.4284 -66.6833 322° Northwest  Level Estimated
Wed 12:27:00 AM -2.3305 -66.7598 322° Northwest  Level Estimated
Wed 12:28:00 AM -2.2327 -66.8363 322° Northwest  Level Estimated
Wed 12:29:00 AM -2.1349 -66.9128 322° Northwest  Level Estimated
Wed 12:30:00 AM -2.0370 -66.9893 322° Northwest  Level Estimated
Wed 12:31:00 AM -1.9392 -67.0658 322° Northwest  Level Estimated
Wed 12:32:00 AM -1.8413 -67.1422 322° Northwest  Level Estimated
Wed 12:33:00 AM -1.7435 -67.2187 322° Northwest  Level Estimated
Wed 12:34:00 AM -1.6456 -67.2951 322° Northwest  Level Estimated
Wed 12:35:00 AM -1.5477 -67.3716 322° Northwest  Level Estimated
Wed 12:36:00 AM -1.4501 -67.4479 322° Northwest  Level Estimated
Wed 12:37:00 AM -1.3524 -67.5242 322° Northwest  Level Estimated
Wed 12:38:00 AM -1.2547 -67.6005 322° Northwest  Level Estimated
Wed 12:39:00 AM -1.1570 -67.6768 322° Northwest  Level Estimated
Wed 12:40:00 AM -1.0593 -67.7531 322° Northwest  Level Estimated
Wed 12:41:00 AM -0.9616 -67.8293 322° Northwest  Level Estimated
Wed 12:42:00 AM -0.8639 -67.9056 322° Northwest  Level Estimated
Wed 12:43:00 AM -0.7662 -67.9819 322° Northwest  Level Estimated
Wed 12:44:00 AM -0.6684 -68.0582 322° Northwest  Level Estimated
Wed 12:45:00 AM -0.5707 -68.1344 322° Northwest  Level Estimated
Wed 12:46:00 AM -0.4730 -68.2107 322° Northwest  Level Estimated
Wed 12:47:00 AM -0.3753 -68.2869 322° Northwest  Level Estimated
Wed 12:48:00 AM -0.2776 -68.3632 322° Northwest  Level Estimated
Wed 12:49:00 AM -0.1799 -68.4395 322° Northwest  Level Estimated
Wed 12:50:00 AM -0.0822 -68.5157 322° Northwest  Level Estimated
Wed 12:51:00 AM 0.0155 -68.5919 322° Northwest  Level Estimated
Wed 12:52:00 AM 0.1132 -68.6682 322° Northwest  Level Estimated
Wed 12:53:00 AM 0.2109 -68.7445 322° Northwest  Level Estimated
Wed 12:54:00 AM 0.3086 -68.8207 322° Northwest  Level Estimated
Wed 12:55:00 AM 0.4064 -68.8970 322° Northwest  Level Estimated
Wed 12:56:00 AM 0.5041 -68.9732 322° Northwest  Level Estimated
Wed 12:57:00 AM 0.6018 -69.0495 322° Northwest  Level Estimated
Wed 12:58:00 AM 0.6997 -69.1259 322° Northwest  Level Estimated
Wed 12:59:00 AM 0.7975 -69.2023 322° Northwest  Level Estimated
Wed 01:00:00 AM 0.8954 -69.2787 322° Northwest  Level Estimated
Wed 01:01:00 AM 0.9933 -69.3551 322° Northwest  Level Estimated
Wed 01:02:00 AM 1.0912 -69.4315 322° Northwest  Level Estimated
Wed 01:03:00 AM 1.1890 -69.5079 322° Northwest  Level Estimated
Wed 01:04:00 AM 1.2869 -69.5844 322° Northwest  Level Estimated
Wed 01:05:00 AM 1.3846 -69.6607 322° Northwest  Level Estimated
Wed 01:06:00 AM 1.4823 -69.7370 322° Northwest  Level Estimated
Wed 01:07:00 AM 1.5800 -69.8133 322° Northwest  Level Estimated
Wed 01:08:00 AM 1.6777 -69.8896 322° Northwest  Level Estimated
Wed 01:09:00 AM 1.7753 -69.9659 322° Northwest  Level Estimated
Wed 01:10:00 AM 1.8730 -70.0422 322° Northwest  Level Estimated
Wed 01:11:00 AM 1.9707 -70.1186 322° Northwest  Level Estimated
Wed 01:12:00 AM 2.0684 -70.1949 322° Northwest  Level Estimated
Wed 01:13:00 AM 2.1660 -70.2713 322° Northwest  Level Estimated
Wed 01:14:00 AM 2.2637 -70.3476 322° Northwest  Level Estimated
Wed 01:15:00 AM 2.3614 -70.4240 322° Northwest  Level Estimated
Wed 01:16:00 AM 2.4590 -70.5004 322° Northwest  Level Estimated
Wed 01:17:00 AM 2.5567 -70.5768 322° Northwest  Level Estimated
Wed 01:18:00 AM 2.6543 -70.6532 322° Northwest  Level Estimated
Wed 01:19:00 AM 2.7520 -70.7297 322° Northwest  Level Estimated
Wed 01:20:00 AM 2.8496 -70.8061 322° Northwest  Level Estimated
Wed 01:21:00 AM 2.9473 -70.8825 322° Northwest  Level Estimated
Wed 01:22:00 AM 3.0449 -70.9590 322° Northwest  Level Estimated
Wed 01:23:00 AM 3.1425 -71.0355 322° Northwest  Level Estimated
Wed 01:24:00 AM 3.2401 -71.1120 322° Northwest  Level Estimated
Wed 01:25:00 AM 3.3377 -71.1885 322° Northwest  Level Estimated
Wed 01:26:00 AM 3.4354 -71.2650 322° Northwest  Level Estimated
Wed 01:27:00 AM 3.5330 -71.3415 322° Northwest  Level Estimated
Wed 01:28:00 AM 3.6306 -71.4181 322° Northwest  Level Estimated
Wed 01:29:00 AM 3.7281 -71.4947 322° Northwest  Level Estimated
Wed 01:30:00 AM 3.8257 -71.5713 322° Northwest  Level Estimated
Wed 01:31:00 AM 3.9233 -71.6479 322° Northwest  Level Estimated
Wed 01:32:00 AM 4.0209 -71.7245 322° Northwest  Level Estimated
Wed 01:33:00 AM 4.1184 -71.8011 322° Northwest  Level Estimated
Wed 01:34:00 AM 4.2160 -71.8778 322° Northwest  Level Estimated
Wed 01:35:00 AM 4.3135 -71.9545 322° Northwest  Level Estimated
Wed 01:36:00 AM 4.4111 -72.0312 322° Northwest  Level Estimated
Wed 01:37:00 AM 4.5086 -72.1079 322° Northwest  Level Estimated
Wed 01:38:00 AM 4.6058 -72.1843 322° Northwest  Level Estimated
Wed 01:38:33 AM 5.1080 -72.7930 322° Northwest 463 533 36,000  Level FlightAware ADS-B
Wed 01:39:00 AM 4.7030 -72.2608 322° Northwest  Level Estimated
Wed 01:39:14 AM 5.1830 -72.8350 331° Northwest 463 533 36,000  Level FlightAware ADS-B
Wed 01:39:59 AM 5.2690 -72.8830 331° Northwest 463 533 36,000  Level FlightAware ADS-B
Wed 01:40:31 AM 5.3290 -72.9160 331° Northwest 462 532 36,000  Level FlightAware ADS-B
Wed 01:41:15 AM 5.4110 -72.9610 331° Northwest 463 533 36,000  Level FlightAware ADS-B
Wed 01:41:55 AM 5.4870 -73.0030 331° Northwest 461 531 36,000  Level FlightAware ADS-B
Wed 01:42:31 AM 5.5550 -73.0400 332° Northwest 458 527 36,000  Level FlightAware ADS-B
Wed 01:43:15 AM 5.6370 -73.0850 331° Northwest 459 528 36,000  Level FlightAware ADS-B
Wed 01:43:52 AM 5.6970 -73.1180 331° Northwest 458 527 36,000  Level FlightAware ADS-B
Wed 01:44:40 AM 5.7720 -73.1600 331° Northwest 458 527 36,000  Level FlightAware ADS-B
Wed 01:45:57 AM 5.8940 -73.2280 331° Northwest 458 527 36,000  Level FlightAware ADS-B
Wed 01:46:46 AM 5.9710 -73.2710 331° Northwest 458 527 36,000  Level FlightAware ADS-B
Wed 01:47:24 AM 6.0310 -73.3040 331° Northwest 458 527 36,000  Level FlightAware ADS-B
Wed 01:48:11 AM 6.1900 -73.3830 334° Northwest 457 526 36,000  Level FlightAware ADS-B
Wed 01:48:51 AM 6.2650 -73.4230 332° Northwest 458 527 36,000  Level FlightAware ADS-B
Wed 01:49:32 AM 6.3400 -73.4630 332° Northwest 459 528 36,000  Level FlightAware ADS-B
Wed 01:50:15 AM 6.4240 -73.5080 332° Northwest 461 531 36,000  Level FlightAware ADS-B
Wed 01:50:55 AM 6.4980 -73.5470 332° Northwest 462 532 36,000  Level FlightAware ADS-B
Wed 01:51:33 AM 6.5710 -73.5860 332° Northwest 462 532 36,000  Level FlightAware ADS-B
Wed 01:52:11 AM 6.6420 -73.6240 332° Northwest 463 533 36,000  Level FlightAware ADS-B
Wed 01:52:56 AM 6.7270 -73.6690 332° Northwest 463 533 36,000  Level FlightAware ADS-B
Wed 01:53:30 AM 6.7930 -73.7050 332° Northwest 462 532 36,000  Level FlightAware ADS-B
Wed 01:54:10 AM 6.8680 -73.7440 333° Northwest 462 532 36,000  Level FlightAware ADS-B
Wed 01:54:55 AM 6.9530 -73.7880 333° Northwest 463 533 36,000  Level FlightAware ADS-B
Wed 01:55:41 AM 7.0360 -73.8360 330° Northwest 463 533 36,000  Level FlightAware ADS-B
Wed 01:56:20 AM 7.1030 -73.8910 321° Northwest 463 533 36,000  Level FlightAware ADS-B
Wed 01:56:41 AM 7.1360 -73.9200 319° Northwest 462 532 36,000  Level FlightAware ADS-B
Wed 01:57:21 AM 7.1970 -73.9750 318° Northwest 462 532 36,000  Level FlightAware ADS-B
Wed 01:58:06 AM 7.2730 -74.0430 318° Northwest 462 532 36,000  Level FlightAware ADS-B
Wed 01:58:46 AM 7.3370 -74.0990 319° Northwest 461 531 36,000  Level FlightAware ADS-B
Wed 01:59:25 AM 7.4020 -74.1560 319° Northwest 462 532 36,000  Level FlightAware ADS-B
Wed 02:00:45 AM 7.5060 -74.2470 319° Northwest 461 531 36,000  Level FlightAware ADS-B
Wed 02:01:26 AM 7.5960 -74.3260 319° Northwest 462 532 36,000  Level FlightAware ADS-B
Wed 02:02:06 AM 7.6560 -74.3790 319° Northwest 463 533 36,000  Level FlightAware ADS-B
Wed 02:02:51 AM 7.7260 -74.4400 319° Northwest 463 533 36,000  Level FlightAware ADS-B
Wed 02:03:31 AM 7.7970 -74.5020 319° Northwest 463 533 36,000  Level FlightAware ADS-B
Wed 02:04:13 AM 7.8620 -74.5580 320° Northwest 462 532 36,000  Level FlightAware ADS-B
Wed 02:04:56 AM 7.9360 -74.6210 320° Northwest 462 532 36,000  Level FlightAware ADS-B
Wed 02:05:31 AM 7.9930 -74.6690 320° Northwest 462 532 36,000  Level FlightAware ADS-B
Wed 02:06:11 AM 8.0590 -74.7260 319° Northwest 464 534 36,000  Level FlightAware ADS-B
Wed 02:06:56 AM 8.1340 -74.7900 320° Northwest 465 535 36,000  Level FlightAware ADS-B
Wed 02:07:35 AM 8.1980 -74.8460 319° Northwest 464 534 36,000  Level FlightAware ADS-B
Wed 02:08:16 AM 8.2640 -74.9030 319° Northwest 466 536 36,000  Level FlightAware ADS-B
Wed 02:09:01 AM 8.3350 -74.9630 320° Northwest 466 536 36,000  Level FlightAware ADS-B
Wed 02:09:41 AM 8.4120 -75.0140 327° Northwest 465 535 36,000  Level FlightAware ADS-B
Wed 02:10:21 AM 8.4830 -75.0610 327° Northwest 465 535 36,000  Level FlightAware ADS-B
Wed 02:11:30 AM 8.6000 -75.1400 326° Northwest 467 537 36,000  Level FlightAware ADS-B
Wed 02:12:12 AM 8.6690 -75.1910 324° Northwest 467 537 36,000  Level FlightAware ADS-B
Wed 02:12:47 AM 8.7410 -75.2430 324° Northwest 466 536 36,000  Level FlightAware ADS-B
Wed 02:13:37 AM 8.8280 -75.3080 324° Northwest 465 535 36,000  Level FlightAware ADS-B
Wed 02:14:17 AM 8.8930 -75.3620 321° Northwest 466 536 36,000  Level FlightAware ADS-B
Wed 02:15:52 AM 9.0400 -75.4860 320° Northwest 464 534 36,000  Level FlightAware ADS-B
Wed 02:16:32 AM 9.1190 -75.5520 320° Northwest 465 535 36,000  Level FlightAware ADS-B
Wed 02:17:12 AM 9.1820 -75.6030 321° Northwest 465 535 36,000  Level FlightAware ADS-B
Wed 02:17:53 AM 9.2510 -75.6580 322° Northwest 465 535 36,000  Level FlightAware ADS-B
Wed 02:18:57 AM 9.3540 -75.7400 322° Northwest 464 534 36,000  Level FlightAware ADS-B
Wed 02:19:31 AM 9.4190 -75.7960 320° Northwest 464 534 36,000  Level FlightAware ADS-B
Wed 02:20:12 AM 9.4820 -75.8550 317° Northwest 465 535 36,000  Level FlightAware ADS-B
Wed 02:20:56 AM 9.5490 -75.9290 313° West 466 536 36,000  Level FlightAware ADS-B
Wed 02:21:36 AM 9.6060 -75.9940 312° West 467 537 36,000  Level FlightAware ADS-B
Wed 02:22:17 AM 9.6640 -76.0580 313° West 467 537 36,000  Level FlightAware ADS-B
Wed 02:22:57 AM 9.7240 -76.1250 312° West 469 540 36,000  Level FlightAware ADS-B
Wed 02:23:42 AM 9.7880 -76.1970 312° West 471 542 36,000  Level FlightAware ADS-B
Wed 02:24:17 AM 9.8400 -76.2530 313° West 472 543 36,000  Level FlightAware ADS-B
Wed 02:25:01 AM 9.9100 -76.3260 314° West 472 543 36,000  Level FlightAware ADS-B
Wed 02:25:37 AM 9.9580 -76.3770 314° West 472 543 36,000  Level FlightAware ADS-B
Wed 02:26:21 AM 10.0290 -76.4540 313° West 470 541 36,000  Level FlightAware ADS-B
Wed 02:26:51 AM 10.0710 -76.4990 313° West 469 540 36,000  Level FlightAware ADS-B
Wed 02:27:41 AM 10.1480 -76.5820 313° West 467 537 36,000  Level FlightAware ADS-B
Wed 02:28:36 AM 10.2310 -76.6640 316° Northwest 457 526 36,000  Level FlightAware ADS-B
Wed 02:29:17 AM 10.2980 -76.7260 318° Northwest 457 526 36,000  Level FlightAware ADS-B
Wed 02:30:32 AM 10.4070 -76.8270 318° Northwest 462 532 36,000  Level FlightAware ADS-B
Wed 02:31:13 AM 10.4790 -76.8950 317° Northwest 461 531 36,000  Level FlightAware ADS-B
Wed 02:32:15 AM 10.5670 -76.9810 316° Northwest 461 531 36,000  Level FlightAware ADS-B
Wed 02:33:05 AM 10.6550 -77.0630 318° Northwest 453 521 36,000  Level FlightAware ADS-B
Wed 02:33:45 AM 10.7050 -77.1140 315° West 453 521 36,000  Level FlightAware ADS-B
Wed 02:34:26 AM 10.7770 -77.1810 318° Northwest 453 521 36,000  Level FlightAware ADS-B
Wed 02:35:22 AM 10.8640 -77.2620 318° Northwest 458 527 36,000  Level FlightAware ADS-B
Wed 02:36:12 AM 10.9410 -77.3330 318° Northwest 460 529 36,000  Level FlightAware ADS-B
Wed 02:36:47 AM 11.0020 -77.3870 319° Northwest 460 529 36,000  Level FlightAware ADS-B
Wed 02:37:45 AM 11.0910 -77.4590 322° Northwest 454 522 36,000  Level FlightAware ADS-B
Wed 02:38:34 AM 11.1690 -77.5240 321° Northwest 454 522 36,000  Level FlightAware ADS-B
Wed 02:39:11 AM 11.2200 -77.5670 320° Northwest 454 522 36,000  Level FlightAware ADS-B
Wed 02:39:47 AM 11.2690 -77.6090 320° Northwest 454 522 36,000  Level FlightAware ADS-B
Wed 02:40:35 AM 11.3350 -77.6660 320° Northwest 454 522 36,000  Level FlightAware ADS-B
Wed 02:41:18 AM 11.4550 -77.7510 325° Northwest 455 524 36,000  Level FlightAware ADS-B
Wed 02:42:03 AM 11.5250 -77.8060 322° Northwest 462 532 36,000  Level FlightAware ADS-B
Wed 02:42:39 AM 11.5800 -77.8510 321° Northwest 456 525 36,000  Level FlightAware ADS-B
Wed 02:43:27 AM 11.6470 -77.9060 321° Northwest 456 525 36,000  Level FlightAware ADS-B
Wed 02:44:15 AM 11.7140 -77.9610 321° Northwest 456 525 36,000  Level FlightAware ADS-B
Wed 02:44:51 AM 11.7640 -78.0030 321° Northwest 456 525 36,000  Level FlightAware ADS-B
Wed 02:45:24 AM 11.8100 -78.0410 321° Northwest 456 525 36,000  Level FlightAware ADS-B
Wed 02:46:12 AM 11.8770 -78.0960 321° Northwest 456 525 36,000  Level FlightAware ADS-B
Wed 02:46:48 AM 11.9270 -78.1380 321° Northwest 456 525 36,000  Level FlightAware ADS-B
Wed 02:47:36 AM 11.9940 -78.1930 321° Northwest 456 525 36,000  Level FlightAware ADS-B
Wed 02:48:13 AM 12.0460 -78.2360 321° Northwest 456 525 36,000  Level FlightAware ADS-B
Wed 02:49:01 AM 12.1130 -78.2910 321° Northwest 456 525 36,000  Level FlightAware ADS-B
Wed 02:49:36 AM 12.1610 -78.3320 320° Northwest 456 525 36,000  Level FlightAware ADS-B
Wed 02:50:24 AM 12.2280 -78.3870 321° Northwest 456 525 36,000  Level FlightAware ADS-B
Wed 02:51:00 AM 12.2780 -78.4280 321° Northwest 456 525 36,000  Level FlightAware ADS-B
Wed 02:51:36 AM 12.3290 -78.4700 321° Northwest 456 525 36,000 28 Level FlightAware ADS-B
Wed 02:54:00 AM 12.5599 -78.6611 321° Northwest  Level Estimated
Wed 02:55:00 AM 12.6561 -78.7409 321° Northwest  Level Estimated
Wed 02:56:00 AM 12.7523 -78.8207 321° Northwest  Level Estimated
Wed 02:57:00 AM 12.8484 -78.9006 321° Northwest  Level Estimated
Wed 02:58:00 AM 12.9446 -78.9805 321° Northwest  Level Estimated
Wed 02:59:00 AM 13.0407 -79.0605 321° Northwest  Level Estimated
Wed 03:00:00 AM 13.1367 -79.1405 321° Northwest  Level Estimated
Wed 03:01:00 AM 13.2328 -79.2207 321° Northwest  Level Estimated
Wed 03:02:00 AM 13.3288 -79.3008 321° Northwest  Level Estimated
Wed 03:03:00 AM 13.4248 -79.3811 321° Northwest  Level Estimated
Wed 03:04:00 AM 13.5208 -79.4614 321° Northwest  Level Estimated
Wed 03:05:00 AM 13.6167 -79.5418 321° Northwest  Level Estimated
Wed 03:06:00 AM 13.7126 -79.6222 321° Northwest  Level Estimated
Wed 03:07:00 AM 13.8085 -79.7027 321° Northwest  Level Estimated
Wed 03:08:00 AM 13.9044 -79.7833 321° Northwest  Level Estimated
Wed 03:09:00 AM 14.0002 -79.8639 321° Northwest  Level Estimated
Wed 03:10:00 AM 14.0960 -79.9446 321° Northwest  Level Estimated
Wed 03:11:00 AM 14.1918 -80.0254 321° Northwest  Level Estimated
Wed 03:12:00 AM 14.2875 -80.1062 321° Northwest  Level Estimated
Wed 03:13:00 AM 14.3833 -80.1871 321° Northwest  Level Estimated
Wed 03:14:00 AM 14.4790 -80.2681 321° Northwest  Level Estimated
Wed 03:15:00 AM 14.5746 -80.3492 321° Northwest  Level Estimated
Wed 03:16:00 AM 14.6703 -80.4303 321° Northwest  Level Estimated
Wed 03:17:00 AM 14.7659 -80.5115 321° Northwest  Level Estimated
Wed 03:18:00 AM 14.8615 -80.5927 321° Northwest  Level Estimated
Wed 03:19:00 AM 14.9571 -80.6741 321° Northwest  Level Estimated
Wed 03:20:00 AM 15.0526 -80.7555 321° Northwest  Level Estimated
Wed 03:21:00 AM 15.1481 -80.8370 321° Northwest  Level Estimated
Wed 03:22:00 AM 15.2436 -80.9185 321° Northwest  Level Estimated
Wed 03:23:00 AM 15.3390 -81.0001 320° Northwest  Level Estimated
Wed 03:24:00 AM 15.4346 -81.0820 320° Northwest  Level Estimated
Wed 03:25:00 AM 15.5301 -81.1639 320° Northwest  Level Estimated
Wed 03:26:00 AM 15.6257 -81.2459 320° Northwest  Level Estimated
Wed 03:27:00 AM 15.7212 -81.3279 320° Northwest  Level Estimated
Wed 03:28:00 AM 15.8166 -81.4101 320° Northwest  Level Estimated
Wed 03:29:00 AM 15.9120 -81.4923 320° Northwest  Level Estimated
Wed 03:30:00 AM 16.0074 -81.5746 320° Northwest  Level Estimated
Wed 03:31:00 AM 16.1028 -81.6570 320° Northwest  Level Estimated
Wed 03:32:00 AM 16.1981 -81.7395 320° Northwest  Level Estimated
Wed 03:33:00 AM 16.2934 -81.8220 320° Northwest  Level Estimated
Wed 03:34:00 AM 16.3887 -81.9046 320° Northwest  Level Estimated
Wed 03:35:00 AM 16.4839 -81.9873 320° Northwest  Level Estimated
Wed 03:36:00 AM 16.5792 -82.0701 320° Northwest  Level Estimated
Wed 03:37:00 AM 16.6743 -82.1530 320° Northwest  Level Estimated
Wed 03:38:00 AM 16.7695 -82.2359 320° Northwest  Level Estimated
Wed 03:39:00 AM 16.8646 -82.3189 320° Northwest  Level Estimated
Wed 03:40:00 AM 16.9597 -82.4020 320° Northwest  Level Estimated
Wed 03:41:00 AM 17.0547 -82.4853 320° Northwest  Level Estimated
Wed 03:42:00 AM 17.1497 -82.5685 320° Northwest  Level Estimated
Wed 03:43:00 AM 17.2447 -82.6519 320° Northwest  Level Estimated
Wed 03:44:00 AM 17.3396 -82.7354 320° Northwest  Level Estimated
Wed 03:45:00 AM 17.4345 -82.8189 320° Northwest  Level Estimated
Wed 03:46:00 AM 17.5294 -82.9025 320° Northwest  Level Estimated
Wed 03:47:00 AM 17.6242 -82.9862 320° Northwest  Level Estimated
Wed 03:48:00 AM 17.7190 -83.0700 320° Northwest  Level Estimated
Wed 03:49:00 AM 17.8138 -83.1539 320° Northwest  Level Estimated
Wed 03:50:00 AM 17.9085 -83.2379 320° Northwest  Level Estimated
Wed 03:51:00 AM 18.0032 -83.3220 320° Northwest  Level Estimated
Wed 03:52:00 AM 18.0978 -83.4061 320° Northwest  Level Estimated
Wed 03:53:00 AM 18.1925 -83.4904 320° Northwest  Level Estimated
Wed 03:54:00 AM 18.2870 -83.5747 320° Northwest  Level Estimated
Wed 03:55:00 AM 18.3816 -83.6592 320° Northwest  Level Estimated
Wed 03:56:00 AM 18.4761 -83.7437 320° Northwest  Level Estimated
Wed 03:57:00 AM 18.5706 -83.8283 320° Northwest  Level Estimated
Wed 03:58:00 AM 18.6650 -83.9130 320° Northwest  Level Estimated
Wed 03:59:00 AM 18.7594 -83.9978 320° Northwest  Level Estimated
Wed 04:00:00 AM 18.8536 -84.0826 320° Northwest  Level Estimated
Wed 04:01:00 AM 18.9477 -84.1674 320° Northwest  Level Estimated
Wed 04:02:00 AM 19.0418 -84.2524 320° Northwest  Level Estimated
Wed 04:02:56 AM 18.9250 -84.7880 320° Northwest 441 507 38,000  Level FlightAware ADS-B
Wed 04:03:00 AM 19.1359 -84.3374 320° Northwest  Level Estimated
Wed 04:03:37 AM 18.9780 -84.8400 317° Northwest 441 507 38,000  Level FlightAware ADS-B
Wed 04:04:30 AM 19.0670 -84.9230 319° Northwest 442 509 38,000  Level FlightAware ADS-B
Wed 04:05:07 AM 19.1160 -84.9720 317° Northwest 442 509 38,000  Level FlightAware ADS-B
Wed 04:05:44 AM 19.1630 -85.0180 317° Northwest 442 509 38,000  Level FlightAware ADS-B
Wed 04:06:23 AM 19.2120 -85.0670 317° Northwest 442 509 38,000  Level FlightAware ADS-B
Wed 04:07:10 AM 19.3060 -85.1600 317° Northwest 441 507 38,000  Level FlightAware ADS-B
Wed 04:07:50 AM 19.3660 -85.2200 317° Northwest 440 506 38,000  Level FlightAware ADS-B
Wed 04:08:33 AM 19.4290 -85.2830 317° Northwest 440 506 38,000  Level FlightAware ADS-B
Wed 04:09:14 AM 19.4900 -85.3430 317° Northwest 439 505 38,000  Level FlightAware ADS-B
Wed 04:09:57 AM 19.5540 -85.4040 318° Northwest 438 504 38,000  Level FlightAware ADS-B
Wed 04:10:36 AM 19.6140 -85.4630 317° Northwest 438 504 38,000  Level FlightAware ADS-B
Wed 04:11:26 AM 19.6870 -85.5330 318° Northwest 436 502 38,000  Level FlightAware ADS-B
Wed 04:12:10 AM 19.7540 -85.6000 317° Northwest 435 501 38,000  Level FlightAware ADS-B
Wed 04:12:54 AM 19.8190 -85.6640 317° Northwest 434 499 38,000  Level FlightAware ADS-B
Wed 04:13:26 AM 19.8640 -85.7090 317° Northwest 433 498 38,000  Level FlightAware ADS-B
Wed 04:14:08 AM 19.9260 -85.7710 317° Northwest 432 497 38,000  Level FlightAware ADS-B
Wed 04:14:52 AM 19.9900 -85.8350 317° Northwest 432 497 38,000  Level FlightAware ADS-B
Wed 04:15:52 AM 20.0780 -85.9230 317° Northwest 435 501 38,000  Level FlightAware ADS-B
Wed 04:16:26 AM 20.1280 -85.9750 316° Northwest 437 503 38,000  Level FlightAware ADS-B
Wed 04:17:10 AM 20.1900 -86.0370 317° Northwest 438 504 38,000  Level FlightAware ADS-B
Wed 04:17:48 AM 20.2460 -86.0940 316° Northwest 439 505 38,000  Level FlightAware ADS-B
Wed 04:18:23 AM 20.2930 -86.1420 316° Northwest 440 506 38,000  Level FlightAware ADS-B
Wed 04:19:10 AM 20.3710 -86.2170 318° Northwest 442 509 38,000  Level FlightAware ADS-B
Wed 04:19:50 AM 20.4300 -86.2760 317° Northwest 444 511 38,000  Level FlightAware ADS-B
Wed 04:20:32 AM 20.4900 -86.3350 317° Northwest 446 513 38,000  Level FlightAware ADS-B
Wed 04:21:14 AM 20.5560 -86.4020 316° Northwest 447 514 38,000  Level FlightAware ADS-B
Wed 04:21:56 AM 20.6210 -86.4680 316° Northwest 449 517 38,000  Level FlightAware ADS-B
Wed 04:22:40 AM 20.6870 -86.5350 316° Northwest 449 517 38,000  Level FlightAware ADS-B
Wed 04:23:18 AM 20.7430 -86.5920 316° Northwest 450 518 38,000  Level FlightAware ADS-B
Wed 04:23:54 AM 20.7980 -86.6480 316° Northwest 451 519 38,000  Level FlightAware ADS-B
Wed 04:24:40 AM 20.8690 -86.7200 317° Northwest 451 519 38,000  Level FlightAware ADS-B
Wed 04:25:16 AM 20.9250 -86.7760 317° Northwest 452 520 38,000  Level FlightAware ADS-B
Wed 04:25:52 AM 20.9790 -86.8310 316° Northwest 452 520 38,000  Level FlightAware ADS-B
Wed 04:26:34 AM 21.0420 -86.8950 317° Northwest 453 521 38,000  Level FlightAware ADS-B
Wed 04:27:16 AM 21.1060 -86.9590 317° Northwest 453 521 38,000  Level FlightAware ADS-B
Wed 04:28:00 AM 21.1750 -87.0270 317° Northwest 453 521 38,000  Level FlightAware ADS-B
Wed 04:28:44 AM 21.2430 -87.0940 317° Northwest 452 520 38,000  Level FlightAware ADS-B
Wed 04:29:24 AM 21.3040 -87.1550 317° Northwest 453 521 38,000  Level FlightAware ADS-B
Wed 04:30:30 AM 21.4050 -87.2560 317° Northwest 454 522 38,000  Level FlightAware ADS-B
Wed 04:31:12 AM 21.4710 -87.3220 317° Northwest 454 522 38,000  Level FlightAware ADS-B
Wed 04:31:54 AM 21.5340 -87.3850 317° Northwest 454 522 38,000  Level FlightAware ADS-B
Wed 04:32:38 AM 21.6030 -87.4540 317° Northwest 454 522 38,000  Level FlightAware ADS-B
Wed 04:33:14 AM 21.6580 -87.5100 317° Northwest 454 522 38,000  Level FlightAware ADS-B
Wed 04:33:54 AM 21.7200 -87.5710 318° Northwest 455 524 38,000  Level FlightAware ADS-B
Wed 04:34:35 AM 21.7780 -87.6290 317° Northwest 456 525 38,000  Level FlightAware ADS-B
Wed 04:35:13 AM 21.8320 -87.6830 317° Northwest 457 526 38,000  Level FlightAware ADS-B
Wed 04:36:07 AM 21.9200 -87.7710 317° Northwest 459 528 38,000  Level FlightAware ADS-B
Wed 04:36:51 AM 21.9890 -87.8400 317° Northwest 460 529 38,000  Level FlightAware ADS-B
Wed 04:37:37 AM 22.0490 -87.9000 317° Northwest 460 529 38,000  Level FlightAware ADS-B
Wed 04:38:26 AM 22.1350 -87.9860 317° Northwest 461 531 38,000  Level FlightAware ADS-B
Wed 04:39:01 AM 22.1900 -88.0410 317° Northwest 462 532 38,000  Level FlightAware ADS-B
Wed 04:39:48 AM 22.2510 -88.1010 318° Northwest 462 532 38,000  Level FlightAware ADS-B
Wed 04:40:28 AM 22.3040 -88.1550 317° Northwest 462 532 38,000  Level FlightAware ADS-B
Wed 04:41:05 AM 22.3530 -88.2040 317° Northwest 462 532 38,000  Level FlightAware ADS-B
Wed 04:42:32 AM 22.4690 -88.3210 317° Northwest 462 532 38,000  Level FlightAware ADS-B
Wed 04:43:08 AM 22.5170 -88.3690 317° Northwest 462 532 38,000  Level FlightAware ADS-B
Wed 04:45:00 AM 22.7005 -88.5270 322° Northwest  Level Estimated
Wed 04:46:00 AM 22.7988 -88.6119 321° Northwest  Level Estimated
Wed 04:47:00 AM 22.8970 -88.6968 321° Northwest  Level Estimated
Wed 04:48:00 AM 22.9951 -88.7819 321° Northwest  Level Estimated
Wed 04:49:00 AM 23.0919 -88.8659 321° Northwest  Level Estimated
Wed 04:50:00 AM 23.1886 -88.9500 321° Northwest  Level Estimated
Wed 04:51:00 AM 23.2852 -89.0342 321° Northwest  Level Estimated
Wed 04:52:00 AM 23.3818 -89.1186 321° Northwest  Level Estimated
Wed 04:53:00 AM 23.4783 -89.2031 321° Northwest  Level Estimated
Wed 04:54:00 AM 23.5749 -89.2877 321° Northwest  Level Estimated
Wed 04:55:00 AM 23.6713 -89.3724 321° Northwest  Level Estimated
Wed 04:56:00 AM 23.7677 -89.4573 321° Northwest  Level Estimated
Wed 04:57:00 AM 23.8641 -89.5423 321° Northwest  Level Estimated
Wed 04:58:00 AM 23.9602 -89.6272 321° Northwest  Level Estimated
Wed 04:59:00 AM 24.0564 -89.7123 321° Northwest  Level Estimated
Wed 05:00:00 AM 24.1524 -89.7975 321° Northwest  Level Estimated
Wed 05:01:00 AM 24.2484 -89.8829 321° Northwest  Level Estimated
Wed 05:02:00 AM 24.3444 -89.9684 321° Northwest  Level Estimated
Wed 05:03:00 AM 24.4403 -90.0540 321° Northwest  Level Estimated
Wed 05:04:00 AM 24.5362 -90.1397 321° Northwest  Level Estimated
Wed 05:05:00 AM 24.6320 -90.2256 321° Northwest  Level Estimated
Wed 05:06:00 AM 24.7278 -90.3116 321° Northwest  Level Estimated
Wed 05:07:00 AM 24.8235 -90.3977 321° Northwest  Level Estimated
Wed 05:08:00 AM 24.9191 -90.4840 321° Northwest  Level Estimated
Wed 05:09:00 AM 25.0148 -90.5704 321° Northwest  Level Estimated
Wed 05:10:00 AM 25.1103 -90.6569 321° Northwest  Level Estimated
Wed 05:11:00 AM 25.2059 -90.7436 321° Northwest  Level Estimated
Wed 05:12:00 AM 25.3013 -90.8304 321° Northwest  Level Estimated
Wed 05:13:00 AM 25.3967 -90.9173 321° Northwest  Level Estimated
Wed 05:14:00 AM 25.4921 -91.0044 321° Northwest  Level Estimated
Wed 05:15:00 AM 25.5874 -91.0916 320° Northwest  Level Estimated
Wed 05:16:00 AM 25.6827 -91.1789 320° Northwest  Level Estimated
Wed 05:17:00 AM 25.7779 -91.2664 320° Northwest  Level Estimated
Wed 05:18:00 AM 25.8731 -91.3541 320° Northwest  Level Estimated
Wed 05:19:00 AM 25.9682 -91.4418 320° Northwest  Level Estimated
Wed 05:20:00 AM 26.0632 -91.5298 320° Northwest  Level Estimated
Wed 05:21:00 AM 26.1583 -91.6178 320° Northwest  Level Estimated
Wed 05:22:00 AM 26.2532 -91.7060 320° Northwest  Level Estimated
Wed 05:23:00 AM 26.3481 -91.7944 320° Northwest  Level Estimated
Wed 05:24:00 AM 26.4429 -91.8829 320° Northwest  Level Estimated
Wed 05:25:00 AM 26.5377 -91.9715 320° Northwest  Level Estimated
Wed 05:26:00 AM 26.6325 -92.0603 320° Northwest  Level Estimated
Wed 05:27:00 AM 26.7271 -92.1492 320° Northwest  Level Estimated
Wed 05:28:00 AM 26.8219 -92.2385 320° Northwest  Level Estimated
Wed 05:29:00 AM 26.9166 -92.3279 320° Northwest  Level Estimated
Wed 05:29:46 AM 27.5142 -92.1851 320° Northwest 474 545 38,000  Level FlightAware ADS-B
Wed 05:30:00 AM 27.0113 -92.4174 320° Northwest  Level Estimated
Wed 05:30:36 AM 27.5918 -92.2725 315° West 475 547 38,000  Level FlightAware ADS-B
Wed 05:31:19 AM 27.6577 -92.3471 315° West 474 545 38,000  Level FlightAware ADS-B
Wed 05:32:12 AM 27.7396 -92.4399 315° West 473 544 38,000  Level FlightAware ADS-B
Wed 05:32:46 AM 27.7930 -92.4999 315° West 473 544 38,000  Level FlightAware ADS-B
Wed 05:33:36 AM 27.8228 -92.5936 315° West 472 543 38,000  Level Houston Center
Wed 05:34:36 AM 27.9178 -92.6950 317° Northwest 470 541 38,000  Level Houston Center
Wed 05:35:36 AM 28.0142 -92.7961 317° Northwest 471 542 38,000  Level Houston Center
Wed 05:36:37 AM 28.1081 -92.9011 315° West 473 544 38,000  Level Houston Center
Wed 05:37:37 AM 28.2031 -93.0050 316° Northwest 474 545 38,000 -50 Level Houston Center
Wed 05:38:37 AM 28.2983 -93.1089 316° Northwest 475 547 37,900 -50 Descending Houston Center
Wed 05:39:37 AM 28.3939 -93.2128 316° Northwest 475 547 37,900 50 Level Houston Center
Wed 05:40:38 AM 28.4811 -93.3131 315° West 474 545 38,000  Climbing Houston Center
Wed 05:41:38 AM 28.5778 -93.4156 317° Northwest 474 545 37,900 -1,100 Descending Houston Center
Wed 05:42:38 AM 28.6778 -93.5258 316° Northwest 474 545 35,800 -2,000 Descending Houston Center
Wed 05:43:38 AM 28.7650 -93.6189 317° Northwest 463 533 33,900 -2,042 Descending Houston Center
Wed 05:48:57 AM 29.2319 -94.1496 317° Northwest 388 447 22,900 -2,063 Descending FlightAware ADS-B
Wed 05:49:27 AM 29.2689 -94.1935 314° West 383 441 21,900 -1,900 Descending FlightAware ADS-B
Wed 05:49:57 AM 29.3058 -94.2373 314° West 377 434 21,000 -1,900 Descending FlightAware ADS-B
Wed 05:50:27 AM 29.3426 -94.2801 315° West 372 428 20,000 -1,900 Descending FlightAware ADS-B
Wed 05:50:57 AM 29.3790 -94.3220 315° West 368 423 19,100 -1,770 Descending FlightAware ADS-B
Wed 05:51:28 AM 29.4152 -94.3638 315° West 363 418 18,200 -1,967 Descending FlightAware ADS-B
Wed 05:51:58 AM 29.4512 -94.4057 315° West 365 420 17,100 -1,967 Descending FlightAware ADS-B
Wed 05:52:29 AM 29.4871 -94.4472 315° West 359 413 16,200 -1,770 Descending FlightAware ADS-B
Wed 05:52:59 AM 29.5223 -94.4879 315° West 355 409 15,300 -2,133 Descending FlightAware ADS-B
Wed 05:53:59 AM 29.5920 -94.5716 313° West 358 412 13,000 -2,067 Descending FlightAware ADS-B
Wed 05:54:29 AM 29.6265 -94.6117 315° West 349 402 12,200 -1,770 Descending FlightAware ADS-B
Wed 05:55:00 AM 29.6609 -94.6507 315° West 345 397 11,200 -1,967 Descending FlightAware ADS-B
Wed 05:55:30 AM 29.6950 -94.6895 315° West 343 395 10,200 -1,733 Descending FlightAware ADS-B
Wed 05:55:45 AM 29.7123 -94.7094 315° West 333 383 9,900 -581 Descending FlightAware ADS-B
Wed 05:56:01 AM 29.7290 -94.7284 315° West 316 364 9,900 -194 Level FlightAware ADS-B
Wed 05:56:16 AM 29.7439 -94.7459 314° West 302 348 9,800 -800 Descending FlightAware ADS-B
Wed 05:56:31 AM 29.7587 -94.7633 314° West 299 344 9,500 -1,355 Descending FlightAware ADS-B
Wed 05:56:47 AM 29.7740 -94.7809 315° West 299 344 9,100 -1,565 Descending FlightAware ADS-B
Wed 05:57:17 AM 29.8035 -94.8148 315° West 298 343 8,300 -1,600 Descending FlightAware ADS-B
Wed 05:57:32 AM 29.8184 -94.8321 315° West 296 341 7,900 -1,200 Descending FlightAware ADS-B
Wed 05:57:47 AM 29.8322 -94.8479 315° West 288 331 7,700 -1,770 Descending FlightAware ADS-B
Wed 05:58:33 AM 29.8734 -94.8968 313° West 281 323 6,100 -2,066 Descending FlightAware ADS-B
Wed 05:58:48 AM 29.8869 -94.9133 313° West 277 319 5,600 -1,655 Descending FlightAware ADS-B
Wed 05:59:02 AM 29.8989 -94.9276 314° West 265 305 5,300 -1,385 Descending FlightAware ADS-B
Wed 05:59:14 AM 29.9098 -94.9396 316° Northwest 255 293 5,000 -1,615 Descending FlightAware ADS-B
Wed 05:59:28 AM 29.9218 -94.9529 316° Northwest 248 285 4,600 -1,333 Descending FlightAware ADS-B
Wed 05:59:59 AM 29.9467 -94.9808 316° Northwest 245 282 4,000 -913 Descending FlightAware ADS-B
Wed 06:00:14 AM 29.9594 -94.9948 316° Northwest 246 283 3,900 -188 Descending FlightAware ADS-B
Wed 06:00:31 AM 29.9736 -95.0108 315° West 248 285 3,900  Level FlightAware ADS-B
Wed 06:00:35 AM 29.9762 -95.0141 312° West 246 283 3,900  Level FlightAware ADS-B
Wed 06:00:41 AM 29.9803 -95.0208 303° West 239 275 3,900  Level FlightAware ADS-B
Wed 06:00:48 AM 29.9834 -95.0288 290° West 229 264 3,900 -545 Level FlightAware ADS-B
Wed 06:00:52 AM 29.9844 -95.0328 286° West 225 259 3,800 -857 Descending FlightAware ADS-B
Wed 06:00:55 AM 29.9848 -95.0362 278° West 220 253 3,800  Level FlightAware ADS-B
Wed 06:01:09 AM 29.9836 -95.0531 263° West 209 241 3,800 286 Level FlightAware ADS-B
Wed 06:01:16 AM 29.9830 -95.0610 265° West 210 242 3,900 250 Climbing FlightAware ADS-B
Wed 06:01:33 AM 29.9830 -95.0786 271° West 201 231 3,900 -316 Level FlightAware ADS-B
Wed 06:01:54 AM 29.9829 -95.1004 268° West 187 215 3,700 -833 Descending FlightAware ADS-B
Wed 06:02:09 AM 29.9827 -95.1152 270° West 187 215 3,400 -1,091 Descending FlightAware ADS-B
Wed 06:02:27 AM 29.9829 -95.1327 271° West 182 209 3,100 -909 Descending FlightAware ADS-B
Wed 06:02:42 AM 29.9834 -95.1478 272° West 188 216 2,900 -783 Descending FlightAware ADS-B
Wed 06:02:50 AM 29.9836 -95.1560 272° West 189 217 2,800 -1,000 Descending FlightAware ADS-B
Wed 06:03:00 AM 29.9837 -95.1655 271° West 189 217 2,600 -1,043 Descending FlightAware ADS-B
Wed 06:03:13 AM 29.9841 -95.1787 272° West 185 213 2,400 -909 Descending FlightAware ADS-B
Wed 06:03:33 AM 29.9844 -95.1974 271° West 171 197 2,100 -968 Descending FlightAware ADS-B
Wed 06:03:44 AM 29.9844 -95.2077 270° West 169 194 1,900 -1,154 Descending FlightAware ADS-B
Wed 06:03:59 AM 29.9848 -95.2216 272° West 170 196 1,600 -909 Descending FlightAware ADS-B
Wed 06:04:17 AM 29.9849 -95.2367 270° West 159 183 1,400 -727 Descending FlightAware ADS-B
Wed 06:04:32 AM 29.9851 -95.2489 271° West 141 162 1,200 -800 Descending FlightAware ADS-B
Wed 06:04:47 AM 29.9853 -95.2599 271° West 135 155 1,000 -818 Descending FlightAware ADS-B
Wed 06:04:54 AM 29.9854 -95.2650 271° West 129 148 900 -1,059 Descending FlightAware ADS-B
Wed 06:05:04 AM 29.9856 -95.2721 272° West 128 147 700 -900 Descending FlightAware ADS-B
Wed 06:05:14 AM 29.9858 -95.2784 272° West 133 153 600 -480 Descending FlightAware ADS-B
Wed 06:05:29 AM 29.9860 -95.2893 271° West 133 153 500 -500 Descending FlightAware ADS-B
Wed 06:05:38 AM 29.9862 -95.2954 272° West 132 152 400 -750 Descending FlightAware ADS-B
Wed 06:05:53 AM 29.9865 -95.3059 272° West 131 151 200 -800 Descending FlightAware ADS-B
Wed 06:06:08 AM 29.9867 -95.3164 271° West 128 147 -800 Descending FlightAware ADS-B

Login

Don't have an account? Register now (free) for customized features, flight alerts, and more!